Time;durP1;ratioP1;P1;durP2;ratioP2;P2;SDS_P1;SDS_P2;PMS_P1;PMS_P2;Temp;Humidity;BMP_temperature;BMP_pressure;BME280_temperature;BME280_humidity;BME280_pressure;Samples;Min_cycle;Max_cycle;Signal;HPM_P1;HPM_P2
2023/07/18 06:01:40;;;;;;;;;2.67;1.00;;;;;-145.45;100.00;57426.63;4891786;28;75669;-65
2023/07/18 06:04:06;;;;;;;;;1.00;1.00;;;;;-145.45;100.00;57426.63;4903514;28;45494;-66
2023/07/18 06:06:32;;;;;;;;;1.67;1.67;;;;;-145.45;100.00;57426.63;4905528;28;54845;-66
2023/07/18 06:08:57;;;;;;;;;3.00;1.33;;;;;-145.45;100.00;57426.63;4906197;28;45491;-66
2023/07/18 06:11:23;;;;;;;;;1.67;1.67;;;;;-145.45;100.00;57426.63;4906399;28;45880;-66
2023/07/18 06:13:49;;;;;;;;;2.00;0.67;;;;;-145.45;100.00;57426.63;4901367;28;45479;-66
2023/07/18 06:16:15;;;;;;;;;4.67;1.33;;;;;-145.45;100.00;57426.63;4899556;28;45347;-66
2023/07/18 06:18:41;;;;;;;;;2.00;2.00;;;;;-145.45;100.00;57426.63;4914813;28;45917;-66
2023/07/18 06:21:07;;;;;;;;;0.67;0.67;;;;;-145.45;100.00;57426.63;4909173;28;45440;-66
2023/07/18 06:23:32;;;;;;;;;1.00;1.00;;;;;-145.45;100.00;57426.63;4911014;28;45474;-66
2023/07/18 06:25:58;;;;;;;;;1.00;1.00;;;;;-145.45;100.00;57426.63;4910845;28;45364;-67
2023/07/18 06:28:24;;;;;;;;;2.67;1.67;;;;;-145.45;100.00;57426.63;4910497;28;45505;-67
2023/07/18 06:30:55;;;;;;;;;2.33;1.33;;;;;-145.45;100.00;57426.63;4904720;28;45385;-67
2023/07/18 06:33:22;;;;;;;;;3.33;2.00;;;;;-145.45;100.00;57426.63;4914394;28;45169;-67
2023/07/18 06:35:55;;;;;;;;;2.00;1.00;;;;;-145.45;100.00;57426.63;4903489;28;45276;-67
2023/07/18 06:38:21;;;;;;;;;1.67;1.67;;;;;-145.45;100.00;57426.63;4913742;28;46153;-66
2023/07/18 06:40:47;;;;;;;;;1.33;1.33;;;;;-145.45;100.00;57426.63;4910300;28;45471;-67
2023/07/18 06:43:13;;;;;;;;;4.00;1.67;;;;;-145.45;100.00;57426.63;4919179;28;45293;-67
2023/07/18 06:45:38;;;;;;;;;0.67;0.67;;;;;-145.45;100.00;57426.63;4912655;28;45900;-67
2023/07/18 06:48:05;;;;;;;;;1.67;0.67;;;;;-145.45;100.00;57426.63;4911780;28;45616;-67
2023/07/18 06:50:30;;;;;;;;;5.00;2.00;;;;;-145.45;100.00;57426.63;4906280;28;45382;-67
2023/07/18 06:52:56;;;;;;;;;2.00;2.00;;;;;-145.45;100.00;57426.63;4908702;28;45193;-67
2023/07/18 06:55:22;;;;;;;;;2.00;2.00;;;;;-145.45;100.00;57426.63;4904883;28;45417;-67
2023/07/18 06:57:48;;;;;;;;;1.00;1.00;;;;;-145.45;100.00;57426.63;4909402;28;45552;-67
2023/07/18 07:00:14;;;;;;;;;1.67;1.67;;;;;-145.45;100.00;57426.63;4905462;28;45243;-67
2023/07/18 07:02:39;;;;;;;;;1.00;1.00;;;;;-145.45;100.00;57426.63;4905256;28;45176;-67
2023/07/18 07:05:05;;;;;;;;;1.67;0.67;;;;;-145.45;100.00;57426.63;4904458;28;45421;-67
2023/07/18 07:07:30;;;;;;;;;4.00;2.00;;;;;-145.45;100.00;57426.63;4904622;28;45302;-67
2023/07/18 07:09:56;;;;;;;;;2.00;2.00;;;;;-145.45;100.00;57426.63;4903718;28;46734;-67
2023/07/18 07:12:21;;;;;;;;;0.67;0.67;;;;;-145.45;100.00;57426.63;4905283;28;45385;-67
2023/07/18 07:14:46;;;;;;;;;3.00;1.00;;;;;-145.45;100.00;57426.63;4905107;28;45444;-66
2023/07/18 07:17:12;;;;;;;;;1.67;1.00;;;;;-145.45;100.00;57426.63;4905216;28;45333;-66
2023/07/18 07:19:37;;;;;;;;;1.00;1.00;;;;;-145.45;100.00;57426.63;4904900;28;51131;-67
2023/07/18 07:22:02;;;;;;;;;4.67;1.00;;;;;-145.45;100.00;57426.63;4905660;28;46657;-68
2023/07/18 07:24:28;;;;;;;;;1.00;1.00;;;;;-145.45;100.00;57426.63;4905048;28;45268;-68
2023/07/18 07:26:53;;;;;;;;;3.00;0.50;;;;;-145.45;100.00;57426.63;4905269;28;52825;-68
2023/07/18 07:29:18;;;;;;;;;1.00;1.00;;;;;-145.45;100.00;57426.63;4905022;28;51612;-68
2023/07/18 07:31:43;;;;;;;;;1.67;0.00;;;;;-145.45;100.00;57426.63;4904978;28;45311;-69
2023/07/18 07:34:10;;;;;;;;;1.00;1.00;;;;;-145.45;100.00;57426.63;4905678;28;45508;-67
2023/07/18 07:36:35;;;;;;;;;1.67;1.00;;;;;-145.45;100.00;57426.63;4905165;28;45407;-67
2023/07/18 07:39:01;;;;;;;;;0.33;0.33;;;;;-145.45;100.00;57426.63;4905366;28;45452;-67
2023/07/18 07:41:26;;;;;;;;;2.67;2.00;;;;;-145.45;100.00;57426.63;4905035;28;45366;-67
2023/07/18 07:43:51;;;;;;;;;1.67;1.67;;;;;-145.45;100.00;57426.63;4905125;28;45283;-66
2023/07/18 07:46:17;;;;;;;;;3.00;2.00;;;;;-145.45;100.00;57426.63;4904034;28;45360;-66
2023/07/18 07:48:42;;;;;;;;;2.00;0.33;;;;;-145.45;100.00;57426.63;4904619;28;45399;-66
2023/07/18 07:51:07;;;;;;;;;1.33;1.33;;;;;-145.45;100.00;57426.63;4903177;28;45327;-67
2023/07/18 07:53:33;;;;;;;;;4.00;3.00;;;;;-145.45;100.00;57426.63;4900882;28;45329;-67
2023/07/18 07:55:58;;;;;;;;;3.67;2.00;;;;;-145.45;100.00;57426.63;4895406;28;45351;-66
2023/07/18 07:58:24;;;;;;;;;4.00;2.00;;;;;-145.45;100.00;57426.63;4907899;28;46931;-66
2023/07/18 08:00:50;;;;;;;;;2.33;2.33;;;;;-145.45;100.00;57426.63;4905164;28;45385;-66
2023/07/18 08:03:16;;;;;;;;;3.00;3.00;;;;;-145.45;100.00;57426.63;4911797;28;45292;-66
2023/07/18 08:05:41;;;;;;;;;2.67;2.67;;;;;-145.45;100.00;57426.63;4907009;28;45370;-66
2023/07/18 08:08:07;;;;;;;;;4.67;1.33;;;;;-145.45;100.00;57426.63;4910020;28;46289;-66
2023/07/18 08:10:32;;;;;;;;;3.67;1.33;;;;;-145.45;100.00;57426.63;4907612;28;45491;-66
2023/07/18 08:12:57;;;;;;;;;1.00;1.00;;;;;-145.45;100.00;57426.63;4914946;28;45417;-67
2023/07/18 08:15:26;;;;;;;;;1.25;1.25;;;;;-145.45;100.00;57426.63;4908191;28;48762;-68
2023/07/18 08:17:51;;;;;;;;;2.00;2.00;;;;;-145.45;100.00;57426.63;4915650;28;45520;-67
2023/07/18 08:20:17;;;;;;;;;3.00;2.75;;;;;-145.45;100.00;57426.63;4907193;28;45287;-67
2023/07/18 08:22:42;;;;;;;;;2.00;2.00;;;;;-145.45;100.00;57426.63;4910047;28;45467;-67
2023/07/18 08:25:08;;;;;;;;;2.00;2.00;;;;;-145.45;100.00;57426.63;4910587;28;45365;-67
2023/07/18 08:27:35;;;;;;;;;2.75;2.00;;;;;-145.45;100.00;57426.63;4911773;28;46827;-67
2023/07/18 08:30:01;;;;;;;;;2.75;2.75;;;;;-145.45;100.00;57426.63;4909930;28;45241;-66
2023/07/18 08:32:26;;;;;;;;;3.25;2.00;;;;;-145.45;100.00;57426.63;4908564;28;45224;-67
2023/07/18 08:34:52;;;;;;;;;3.00;3.00;;;;;-145.45;100.00;57426.63;4910942;28;46129;-67
2023/07/18 08:37:17;;;;;;;;;2.00;2.00;;;;;-145.45;100.00;57426.63;4910263;28;45230;-66
2023/07/18 08:39:43;;;;;;;;;3.25;3.25;;;;;-145.45;100.00;57426.63;4907550;28;45596;-67
2023/07/18 08:42:13;;;;;;;;;5.75;3.75;;;;;-145.45;100.00;57426.63;4903025;28;46028;-66
2023/07/18 08:44:39;;;;;;;;;3.00;3.00;;;;;-145.45;100.00;57426.63;4910050;28;45575;-67
2023/07/18 08:47:06;;;;;;;;;2.25;1.25;;;;;-145.45;100.00;57426.63;4903822;28;46453;-67
2023/07/18 08:49:35;;;;;;;;;2.80;1.80;;;;;-145.45;100.00;57426.63;4909565;28;45670;-66
2023/07/18 08:52:01;;;;;;;;;2.50;2.50;;;;;-145.45;100.00;57426.63;4905323;28;45460;-67
2023/07/18 08:54:27;;;;;;;;;4.00;2.00;;;;;-145.45;100.00;57426.63;4909526;28;45449;-67
2023/07/18 08:56:54;;;;;;;;;1.75;1.75;;;;;-145.45;100.00;57426.63;4904962;28;47296;-68
2023/07/18 08:59:20;;;;;;;;;3.20;2.00;;;;;-145.45;100.00;57426.63;4908921;28;45383;-67
2023/07/18 09:01:51;;;;;;;;;2.25;2.00;;;;;-145.45;100.00;57426.63;4901814;28;45204;-67
2023/07/18 09:04:18;;;;;;;;;2.50;2.25;;;;;-145.45;100.00;57426.63;4910280;28;45536;-67
2023/07/18 09:06:47;;;;;;;;;2.20;1.20;;;;;-145.45;100.00;57426.63;4907372;28;46436;-67
2023/07/18 09:09:17;;;;;;;;;2.00;1.60;;;;;-145.45;100.00;57426.63;4908541;28;45338;-67
2023/07/18 09:12:04;;;;;;;;;2.20;1.20;;;;;-145.45;100.00;57426.63;4908704;28;45630;-67
2023/07/18 09:14:32;;;;;;;;;3.00;2.60;;;;;-145.45;100.00;57426.63;4900016;28;45580;-67
2023/07/18 09:17:00;;;;;;;;;1.20;1.20;;;;;-145.45;100.00;57426.63;4911465;28;46577;-67
2023/07/18 09:19:48;;;;;;;;;2.40;2.40;;;;;-145.45;100.00;57426.63;4910594;28;45529;-67
2023/07/18 09:22:15;;;;;;;;;3.60;2.00;;;;;-145.45;100.00;57426.63;4907969;28;45284;-70
2023/07/18 09:24:41;;;;;;;;;2.80;2.80;;;;;-145.45;100.00;57426.63;4907970;28;45504;-70
2023/07/18 09:27:09;;;;;;;;;4.00;2.20;;;;;-145.45;100.00;57426.63;4908729;28;45458;-71
2023/07/18 09:29:34;;;;;;;;;4.20;2.80;;;;;-145.45;100.00;57426.63;4906379;28;45376;-70
2023/07/18 09:32:00;;;;;;;;;2.00;2.00;;;;;-145.45;100.00;57426.63;4908466;28;45376;-70
2023/07/18 09:34:27;;;;;;;;;3.80;1.80;;;;;-145.45;100.00;57426.63;4909558;28;46170;-70
2023/07/18 09:36:58;;;;;;;;;2.20;1.80;;;;;-145.45;100.00;57426.63;4908733;28;47484;-70
2023/07/18 09:39:24;;;;;;;;;2.80;2.00;;;;;-145.45;100.00;57426.63;4909105;28;45259;-71
2023/07/18 09:41:51;;;;;;;;;2.60;2.20;;;;;-145.45;100.00;57426.63;4903062;28;45314;-71
2023/07/18 09:44:18;;;;;;;;;3.40;2.00;;;;;-145.45;100.00;57426.63;4909150;28;45458;-71
2023/07/18 09:46:43;;;;;;;;;3.20;2.20;;;;;-145.45;100.00;57426.63;4903740;28;45398;-71
2023/07/18 09:49:09;;;;;;;;;1.00;1.00;;;;;-145.45;100.00;57426.63;4908911;28;45207;-71
2023/07/18 09:51:37;;;;;;;;;3.60;2.60;;;;;-145.45;100.00;57426.63;4904349;28;45238;-71
2023/07/18 09:54:05;;;;;;;;;1.20;1.20;;;;;-145.45;100.00;57426.63;4909090;28;45236;-70
2023/07/18 09:56:35;;;;;;;;;2.00;2.00;;;;;-145.45;100.00;57426.63;4904989;28;45945;-70
2023/07/18 09:59:05;;;;;;;;;1.60;1.40;;;;;-145.45;100.00;57426.63;4909289;28;45399;-70
2023/07/18 10:01:32;;;;;;;;;1.00;1.00;;;;;-145.45;100.00;57426.63;4900795;29;45327;-70
2023/07/18 10:03:58;;;;;;;;;3.00;1.20;;;;;-145.45;100.00;57426.63;4909527;28;45474;-70
2023/07/18 10:06:25;;;;;;;;;1.00;1.00;;;;;-145.45;100.00;57426.63;4907230;28;45366;-71
2023/07/18 10:08:53;;;;;;;;;1.00;1.00;;;;;-145.45;100.00;57426.63;4907571;28;45981;-69
2023/07/18 10:11:18;;;;;;;;;2.60;2.00;;;;;-145.45;100.00;57426.63;4908007;28;45465;-70
2023/07/18 10:13:56;;;;;;;;;5.25;1.25;;;;;-145.45;100.00;57426.63;4911964;28;45854;-69
2023/07/18 10:16:23;;;;;;;;;3.20;1.40;;;;;-145.45;100.00;57426.63;4911037;28;46256;-69
2023/07/18 10:18:49;;;;;;;;;1.80;0.40;;;;;-145.45;100.00;57426.63;4916185;28;45304;-69
2023/07/18 10:21:35;;;;;;;;;1.60;1.00;;;;;-145.45;100.00;57426.63;4905514;28;45401;-71
2023/07/18 10:24:26;;;;;;;;;1.60;1.20;;;;;-145.45;100.00;57426.63;4902170;28;51681;-70
2023/07/18 10:26:52;;;;;;;;;3.00;1.00;;;;;-145.45;100.00;57426.63;4907480;28;45370;-70
2023/07/18 10:29:18;;;;;;;;;1.00;1.00;;;;;-145.45;100.00;57426.63;4913872;28;45331;-71
2023/07/18 10:31:44;;;;;;;;;1.00;1.00;;;;;-145.45;100.00;57426.63;4910280;28;45619;-71
2023/07/18 10:34:14;;;;;;;;;2.60;2.60;;;;;-145.45;100.00;57426.63;4914167;28;45373;-71
2023/07/18 10:36:41;;;;;;;;;1.60;1.40;;;;;-145.45;100.00;57426.63;4910776;28;46204;-70
2023/07/18 10:39:12;;;;;;;;;4.40;2.40;;;;;-145.45;100.00;57426.63;4913692;28;45544;-71
2023/07/18 10:41:45;;;;;;;;;2.60;1.20;;;;;-145.45;100.00;57426.63;4904208;28;45262;-69
2023/07/18 10:44:12;;;;;;;;;2.40;2.40;;;;;-145.45;100.00;57426.63;4911399;28;45385;-70
2023/07/18 10:46:39;;;;;;;;;3.60;1.00;;;;;-145.45;100.00;57426.63;4907152;28;46554;-70
2023/07/18 10:49:04;;;;;;;;;2.80;1.20;;;;;-145.45;100.00;57426.63;4905739;28;45330;-71
2023/07/18 10:51:30;;;;;;;;;1.00;1.00;;;;;-145.45;100.00;57426.63;4907595;28;45353;-71
2023/07/18 10:53:58;;;;;;;;;2.00;1.00;;;;;-145.45;100.00;57426.63;4910960;28;45490;-71
2023/07/18 10:56:24;;;;;;;;;2.00;1.00;;;;;-145.45;100.00;57426.63;4905751;28;45517;-70
2023/07/18 10:58:51;;;;;;;;;3.00;1.00;;;;;-145.45;100.00;57426.63;4910205;28;45279;-70
2023/07/18 11:01:17;;;;;;;;;0.80;0.80;;;;;-145.45;100.00;57426.63;4903674;28;45319;-71
2023/07/18 11:03:45;;;;;;;;;1.60;1.60;;;;;-145.45;100.00;57426.63;4923653;28;46536;-71
2023/07/18 11:06:10;;;;;;;;;1.60;1.60;;;;;-145.45;100.00;57426.63;4910859;28;45497;-70
2023/07/18 11:08:37;;;;;;;;;2.50;2.00;;;;;-145.45;100.00;57426.63;4909705;28;45414;-70
2023/07/18 11:11:04;;;;;;;;;1.20;1.20;;;;;-145.45;100.00;57426.63;4906053;28;45517;-72
2023/07/18 11:13:38;;;;;;;;;1.40;1.40;;;;;-145.45;100.00;57426.63;4910340;28;45429;-71
2023/07/18 11:16:08;;;;;;;;;1.40;0.80;;;;;-145.45;100.00;57426.63;4913389;28;46115;-72
2023/07/18 11:18:38;;;;;;;;;1.20;1.20;;;;;-145.45;100.00;57426.63;4915443;28;45366;-71
2023/07/18 11:21:04;;;;;;;;;2.20;2.20;;;;;-145.45;100.00;57426.63;4905889;28;45458;-72
2023/07/18 11:23:31;;;;;;;;;1.00;1.00;;;;;-145.45;100.00;57426.63;4911391;28;45429;-72
2023/07/18 11:25:56;;;;;;;;;1.80;1.20;;;;;-145.45;100.00;57426.63;4905498;28;46354;-72
2023/07/18 11:28:28;;;;;;;;;3.25;3.00;;;;;-145.45;100.00;57426.63;4910776;28;45293;-71
2023/07/18 11:30:53;;;;;;;;;1.60;1.60;;;;;-145.45;100.00;57426.63;4904983;28;45534;-72
2023/07/18 11:33:19;;;;;;;;;0.75;0.75;;;;;-145.45;100.00;57426.63;4914402;28;45552;-72
2023/07/18 11:35:47;;;;;;;;;0.25;0.00;;;;;-145.45;100.00;57426.63;4910630;28;45460;-72
2023/07/18 11:38:17;;;;;;;;;2.00;1.20;;;;;-145.45;100.00;57426.63;4914465;28;45438;-72
2023/07/18 11:40:42;;;;;;;;;1.00;1.00;;;;;-145.45;100.00;57426.63;4917695;28;45216;-71
2023/07/18 11:43:17;;;;;;;;;3.25;2.50;;;;;-145.45;100.00;57426.63;4905703;28;45241;-71
2023/07/18 11:45:43;;;;;;;;;4.20;1.40;;;;;-145.45;100.00;57426.63;4905715;28;45512;-71
2023/07/18 11:48:09;;;;;;;;;2.00;1.00;;;;;-145.45;100.00;57426.63;4905187;28;45445;-71
2023/07/18 11:50:35;;;;;;;;;2.00;2.00;;;;;-145.45;100.00;57426.63;4898989;28;45463;-71
2023/07/18 11:53:03;;;;;;;;;5.00;2.75;;;;;-145.45;100.00;57426.63;4908039;28;45448;-71
2023/07/18 11:55:30;;;;;;;;;1.40;1.40;;;;;-145.45;100.00;57426.63;4899457;28;45569;-71
2023/07/18 11:57:56;;;;;;;;;2.80;1.00;;;;;-145.45;100.00;57426.63;4900050;28;45490;-72
2023/07/18 12:00:21;;;;;;;;;2.75;1.50;;;;;-145.45;100.00;57426.63;4901531;28;45531;-71
2023/07/18 12:02:48;;;;;;;;;2.50;1.50;;;;;-145.45;100.00;57426.63;4909069;28;45354;-71
2023/07/18 12:05:15;;;;;;;;;1.60;1.60;;;;;-145.45;100.00;57426.63;4904720;28;45284;-70
2023/07/18 12:07:41;;;;;;;;;2.00;2.00;;;;;-145.45;100.00;57426.63;4913579;28;45247;-71
2023/07/18 12:10:07;;;;;;;;;3.80;2.00;;;;;-145.45;100.00;57426.63;4899330;28;45342;-71
2023/07/18 12:12:33;;;;;;;;;2.40;1.40;;;;;-145.45;100.00;57426.63;4914893;28;45449;-71
2023/07/18 12:14:59;;;;;;;;;3.60;2.00;;;;;-145.45;100.00;57426.63;4906119;28;45528;-71
2023/07/18 12:17:26;;;;;;;;;3.60;2.00;;;;;-145.45;100.00;57426.63;4911607;28;45485;-71
2023/07/18 12:19:51;;;;;;;;;2.20;2.20;;;;;-145.45;100.00;57426.63;4909587;28;46097;-71
2023/07/18 12:22:18;;;;;;;;;2.00;2.00;;;;;-145.45;100.00;57426.63;4905800;28;51780;-71
2023/07/18 12:24:43;;;;;;;;;3.20;2.40;;;;;-145.45;100.00;57426.63;4904862;28;45413;-71
2023/07/18 12:27:08;;;;;;;;;6.50;6.00;;;;;-145.45;100.00;57426.63;4907458;28;45180;-71
2023/07/18 12:29:34;;;;;;;;;4.50;3.00;;;;;-145.45;100.00;57426.63;4905249;28;45548;-71
2023/07/18 12:31:59;;;;;;;;;7.50;5.50;;;;;-145.45;100.00;57426.63;4906016;28;46026;-71
2023/07/18 12:34:27;;;;;;;;;8.25;8.00;;;;;-145.45;100.00;57426.63;4907397;28;46112;-72
2023/07/18 12:36:53;;;;;;;;;1.80;1.80;;;;;-145.45;100.00;57426.63;4910813;28;45366;-72
2023/07/18 12:39:19;;;;;;;;;2.00;2.00;;;;;-145.45;100.00;57426.63;4910172;28;45584;-71
2023/07/18 12:41:44;;;;;;;;;5.80;3.00;;;;;-145.45;100.00;57426.63;4903603;28;45726;-72
2023/07/18 12:44:18;;;;;;;;;3.25;2.75;;;;;-145.45;100.00;57426.63;4909457;28;45457;-71
2023/07/18 12:46:43;;;;;;;;;2.20;1.80;;;;;-145.45;100.00;57426.63;4903478;28;45386;-71
2023/07/18 12:49:09;;;;;;;;;0.00;0.00;;;;;-145.45;100.00;57426.63;4908236;28;45370;-71
2023/07/18 12:51:35;;;;;;;;;1.75;1.00;;;;;-145.45;100.00;57426.63;4903475;28;45615;-71
2023/07/18 12:54:00;;;;;;;;;3.00;3.00;;;;;-145.45;100.00;57426.63;4903606;28;45396;-71
2023/07/18 12:56:25;;;;;;;;;3.25;3.25;;;;;-145.45;100.00;57426.63;4906613;28;45299;-71
2023/07/18 12:58:51;;;;;;;;;16.00;13.75;;;;;-145.45;100.00;57426.63;4910387;28;45326;-72
2023/07/18 13:01:17;;;;;;;;;2.40;2.00;;;;;-145.45;100.00;57426.63;4902367;28;45842;-72
2023/07/18 13:03:42;;;;;;;;;2.00;2.00;;;;;-145.45;100.00;57426.63;4908938;28;46612;-72
2023/07/18 13:06:08;;;;;;;;;5.75;5.50;;;;;-145.45;100.00;57426.63;4909663;28;45287;-71
2023/07/18 13:08:34;;;;;;;;;16.50;15.50;;;;;-145.45;100.00;57426.63;4907494;28;45421;-72
2023/07/18 13:10:59;;;;;;;;;11.80;10.60;;;;;-145.45;100.00;57426.63;4910686;28;45555;-71
2023/07/18 13:13:25;;;;;;;;;4.00;2.50;;;;;-145.45;100.00;57426.63;4908420;28;46530;-72
2023/07/18 13:15:50;;;;;;;;;4.00;3.50;;;;;-145.45;100.00;57426.63;4909635;28;45329;-71
2023/07/18 13:18:16;;;;;;;;;2.50;1.50;;;;;-145.45;100.00;57426.63;4906875;28;45206;-72
2023/07/18 13:20:41;;;;;;;;;2.00;2.00;;;;;-145.45;100.00;57426.63;4903691;28;45512;-72
2023/07/18 13:23:07;;;;;;;;;3.00;1.00;;;;;-145.45;100.00;57426.63;4903446;28;45187;-72
2023/07/18 13:25:32;;;;;;;;;2.25;2.25;;;;;-145.45;100.00;57426.63;4904727;28;45504;-71
2023/07/18 13:27:58;;;;;;;;;2.00;2.00;;;;;-145.45;100.00;57426.63;4903965;28;45484;-72
2023/07/18 13:30:23;;;;;;;;;1.75;1.75;;;;;-145.45;100.00;57426.63;4905772;28;45351;-72
2023/07/18 13:32:49;;;;;;;;;2.25;1.25;;;;;-145.45;100.00;57426.63;4903766;28;45351;-71
2023/07/18 13:35:14;;;;;;;;;2.75;2.75;;;;;-145.45;100.00;57426.63;4905240;28;45281;-72
2023/07/18 13:37:40;;;;;;;;;2.75;2.25;;;;;-145.45;100.00;57426.63;4904863;28;45417;-71
2023/07/18 13:40:06;;;;;;;;;1.00;1.00;;;;;-145.45;100.00;57426.63;4903615;28;54076;-71
2023/07/18 13:42:31;;;;;;;;;3.60;2.40;;;;;-145.45;100.00;57426.63;4902834;28;45421;-71
2023/07/18 13:44:57;;;;;;;;;0.75;0.75;;;;;-145.45;100.00;57426.63;4905416;28;50818;-72
2023/07/18 13:47:22;;;;;;;;;2.00;2.00;;;;;-145.45;100.00;57426.63;4904348;28;45337;-72
2023/07/18 13:49:47;;;;;;;;;3.50;2.75;;;;;-145.45;100.00;57426.63;4903514;28;45392;-72
2023/07/18 13:52:13;;;;;;;;;2.00;1.50;;;;;-145.45;100.00;57426.63;4903682;28;53685;-71
2023/07/18 13:54:38;;;;;;;;;2.00;2.00;;;;;-145.45;100.00;57426.63;4902883;28;47431;-71
2023/07/18 13:57:04;;;;;;;;;2.75;2.00;;;;;-145.45;100.00;57426.63;4904267;28;45176;-72
2023/07/18 13:59:30;;;;;;;;;2.20;2.20;;;;;-145.45;100.00;57426.63;4904185;28;45481;-69
2023/07/18 14:01:55;;;;;;;;;2.75;2.75;;;;;-145.45;100.00;57426.63;4901640;28;45439;-70
2023/07/18 14:04:20;;;;;;;;;2.25;1.00;;;;;-145.45;100.00;57426.63;4902476;28;45366;-70
2023/07/18 14:06:45;;;;;;;;;2.25;2.00;;;;;-145.45;100.00;57426.63;4903102;28;45280;-69
2023/07/18 14:09:11;;;;;;;;;2.25;2.00;;;;;-145.45;100.00;57426.63;4903256;28;46196;-70
2023/07/18 14:11:36;;;;;;;;;2.25;1.00;;;;;-145.45;100.00;57426.63;4899234;28;49755;-70
2023/07/18 14:14:02;;;;;;;;;3.75;2.00;;;;;-145.45;100.00;57426.63;4906208;28;45444;-71
2023/07/18 14:16:27;;;;;;;;;2.00;2.00;;;;;-145.45;100.00;57426.63;4909251;28;45358;-72
2023/07/18 14:18:56;;;;;;;;;0.75;0.75;;;;;-145.45;100.00;57426.63;4916160;28;45492;-72
2023/07/18 14:21:21;;;;;;;;;1.20;1.20;;;;;-145.45;100.00;57426.63;4901615;28;46191;-70
2023/07/18 14:23:47;;;;;;;;;3.00;3.00;;;;;-145.45;100.00;57426.63;4912136;28;45378;-70
2023/07/18 14:26:12;;;;;;;;;4.50;3.50;;;;;-145.45;100.00;57426.63;4903226;28;48513;-71
2023/07/18 14:28:37;;;;;;;;;2.50;2.50;;;;;-145.45;100.00;57426.63;4910506;28;47581;-72
2023/07/18 14:31:02;;;;;;;;;4.00;3.00;;;;;-145.45;100.00;57426.63;4897629;28;55904;-72
2023/07/18 14:33:28;;;;;;;;;2.25;2.00;;;;;-145.45;100.00;57426.63;4907459;28;46300;-71
2023/07/18 14:35:53;;;;;;;;;3.50;2.50;;;;;-145.45;100.00;57426.63;4901136;28;49361;-72
2023/07/18 14:38:18;;;;;;;;;2.00;2.00;;;;;-145.45;100.00;57426.63;4901216;28;45346;-72
2023/07/18 14:40:47;;;;;;;;;3.75;2.00;;;;;-145.45;100.00;57426.63;4901323;28;45494;-70
2023/07/18 14:43:20;;;;;;;;;3.00;3.00;;;;;-145.45;100.00;57426.63;4905770;28;45370;-71
2023/07/18 14:45:46;;;;;;;;;1.60;1.60;;;;;-145.45;100.00;57426.63;4903652;28;45228;-72
2023/07/18 14:48:11;;;;;;;;;2.75;2.75;;;;;-145.45;100.00;57426.63;4906030;28;45326;-72
2023/07/18 14:50:36;;;;;;;;;2.50;2.50;;;;;-145.45;100.00;57426.63;4898753;28;45363;-72
2023/07/18 14:53:02;;;;;;;;;2.00;1.00;;;;;-145.45;100.00;57426.63;4906798;28;45216;-72
2023/07/18 14:55:27;;;;;;;;;2.00;2.00;;;;;-145.45;100.00;57426.63;4896900;28;45677;-72
2023/07/18 14:57:53;;;;;;;;;2.00;2.00;;;;;-145.45;100.00;57426.63;4897338;28;45642;-72
2023/07/18 15:00:19;;;;;;;;;2.25;1.50;;;;;-145.45;100.00;57426.63;4892330;28;45544;-71
2023/07/18 15:02:44;;;;;;;;;4.20;2.00;;;;;-145.45;100.00;57426.63;4912625;28;45514;-72
2023/07/18 15:05:09;;;;;;;;;2.75;2.75;;;;;-145.45;100.00;57426.63;4905830;28;45709;-72
2023/07/18 15:07:35;;;;;;;;;3.00;3.00;;;;;-145.45;100.00;57426.63;4909989;28;45466;-72
2023/07/18 15:10:00;;;;;;;;;3.75;3.00;;;;;-145.45;100.00;57426.63;4906256;28;55332;-72
2023/07/18 15:12:25;;;;;;;;;3.00;3.00;;;;;-145.45;100.00;57426.63;4909934;28;45315;-72
2023/07/18 15:14:51;;;;;;;;;2.25;2.00;;;;;-145.45;100.00;57426.63;4906739;28;45296;-72
2023/07/18 15:17:16;;;;;;;;;3.25;2.00;;;;;-145.45;100.00;57426.63;4907484;28;45276;-71
2023/07/18 15:19:41;;;;;;;;;3.00;3.00;;;;;-145.45;100.00;57426.63;4906441;28;46390;-72
2023/07/18 15:22:07;;;;;;;;;3.75;2.00;;;;;-145.45;100.00;57426.63;4907810;28;45366;-72
2023/07/18 15:24:32;;;;;;;;;4.25;4.25;;;;;-145.45;100.00;57426.63;4908050;28;45442;-72
2023/07/18 15:26:57;;;;;;;;;2.00;2.00;;;;;-145.45;100.00;57426.63;4910384;28;45351;-72
2023/07/18 15:29:23;;;;;;;;;3.75;3.75;;;;;-145.45;100.00;57426.63;4907417;28;46575;-72
2023/07/18 15:31:48;;;;;;;;;3.25;2.00;;;;;-145.45;100.00;57426.63;4910487;28;45269;-72
2023/07/18 15:34:14;;;;;;;;;6.00;4.00;;;;;-145.45;100.00;57426.63;4898472;28;45450;-72
2023/07/18 15:36:39;;;;;;;;;2.75;2.75;;;;;-145.45;100.00;57426.63;4900810;28;45370;-71
2023/07/18 15:39:04;;;;;;;;;1.00;1.00;;;;;-145.45;100.00;57426.63;4907672;28;45310;-72
2023/07/18 15:41:30;;;;;;;;;3.25;2.00;;;;;-145.45;100.00;57426.63;4906726;28;45392;-73
2023/07/18 15:43:56;;;;;;;;;2.00;2.00;;;;;-145.45;100.00;57426.63;4908342;28;45220;-72
2023/07/18 15:46:21;;;;;;;;;2.00;2.00;;;;;-145.45;100.00;57426.63;4904909;28;46189;-72
2023/07/18 15:48:47;;;;;;;;;2.75;2.75;;;;;-145.45;100.00;57426.63;4906718;28;46903;-72
2023/07/18 15:51:12;;;;;;;;;4.00;2.50;;;;;-145.45;100.00;57426.63;4906791;28;45267;-72
2023/07/18 15:53:38;;;;;;;;;3.50;2.25;;;;;-145.45;100.00;57426.63;4907946;28;45282;-72
2023/07/18 15:56:03;;;;;;;;;3.00;3.00;;;;;-145.45;100.00;57426.63;4907982;28;45456;-72
2023/07/18 15:58:29;;;;;;;;;1.00;1.00;;;;;-145.45;100.00;57426.63;4908074;28;47022;-72
2023/07/18 16:00:56;;;;;;;;;4.00;2.75;;;;;-145.45;100.00;57426.63;4904399;28;45334;-72
2023/07/18 16:03:22;;;;;;;;;2.20;2.20;;;;;-145.45;100.00;57426.63;4907614;28;45352;-72
2023/07/18 16:05:47;;;;;;;;;3.00;3.00;;;;;-145.45;100.00;57426.63;4908590;28;45470;-72
2023/07/18 16:08:14;;;;;;;;;2.75;2.75;;;;;-145.45;100.00;57426.63;4905943;28;45980;-72
2023/07/18 16:10:39;;;;;;;;;3.00;2.00;;;;;-145.45;100.00;57426.63;4923923;28;45308;-72
2023/07/18 16:13:05;;;;;;;;;4.25;3.00;;;;;-145.45;100.00;57426.63;4907125;28;45544;-71
2023/07/18 16:15:30;;;;;;;;;1.00;1.00;;;;;-145.45;100.00;57426.63;4906638;28;45314;-72
2023/07/18 16:17:56;;;;;;;;;3.75;2.00;;;;;-145.45;100.00;57426.63;4907188;28;45316;-72
2023/07/18 16:20:21;;;;;;;;;3.00;2.00;;;;;-145.45;100.00;57426.63;4906123;28;45292;-72
2023/07/18 16:22:52;;;;;;;;;2.50;2.50;;;;;-145.45;100.00;57426.63;4905408;28;45306;-72
2023/07/18 16:25:17;;;;;;;;;3.20;2.00;;;;;-145.45;100.00;57426.63;4908608;28;45466;-72
2023/07/18 16:27:43;;;;;;;;;3.50;3.50;;;;;-145.45;100.00;57426.63;4907131;28;45343;-71
2023/07/18 16:30:09;;;;;;;;;4.25;4.25;;;;;-145.45;100.00;57426.63;4909282;28;45466;-71
2023/07/18 16:32:34;;;;;;;;;2.40;2.40;;;;;-145.45;100.00;57426.63;4907268;28;45267;-72
2023/07/18 16:34:59;;;;;;;;;3.75;3.00;;;;;-145.45;100.00;57426.63;4903941;28;45910;-72
2023/07/18 16:37:25;;;;;;;;;2.50;2.50;;;;;-145.45;100.00;57426.63;4903033;28;50864;-71
2023/07/18 16:39:51;;;;;;;;;2.50;2.50;;;;;-145.45;100.00;57426.63;4910154;28;45332;-71
2023/07/18 16:42:17;;;;;;;;;3.20;2.20;;;;;-145.45;100.00;57426.63;4904535;28;45228;-73
2023/07/18 16:44:42;;;;;;;;;2.00;2.00;;;;;-145.45;100.00;57426.63;4908076;28;45176;-72
2023/07/18 16:47:08;;;;;;;;;2.25;2.00;;;;;-145.45;100.00;57426.63;4904903;28;55492;-72
2023/07/18 16:49:33;;;;;;;;;3.75;2.75;;;;;-145.45;100.00;57426.63;4907930;28;45520;-72
2023/07/18 16:51:58;;;;;;;;;2.25;2.25;;;;;-145.45;100.00;57426.63;4906569;28;45458;-72
2023/07/18 16:54:24;;;;;;;;;2.00;2.00;;;;;-145.45;100.00;57426.63;4911282;28;45317;-69
2023/07/18 16:56:49;;;;;;;;;3.50;2.25;;;;;-145.45;100.00;57426.63;4919307;28;47217;-69
2023/07/18 16:59:14;;;;;;;;;5.25;2.50;;;;;-145.45;100.00;57426.63;4911905;28;51496;-69
2023/07/18 17:01:40;;;;;;;;;4.00;3.00;;;;;-145.45;100.00;57426.63;4902492;28;45316;-69
2023/07/18 17:04:05;;;;;;;;;4.00;4.00;;;;;-145.45;100.00;57426.63;4911215;28;46237;-69
2023/07/18 17:06:30;;;;;;;;;2.75;2.75;;;;;-145.45;100.00;57426.63;4909018;28;45418;-68